Data for 06/17/2018

Time Sea-Level Adjusted Pressure Absolute Pressure Temperature Relative Humidity Dew Point   
(mb) (inHg) (mb) (inHg) (C) (F) (%) (C) (F)
00:05 1018 30.06 847 25.01 10.6 51 77 6.8 44.3
00:10 1018 30.06 847 25.01 10.5 50.9 78 6.9 44.3
00:15 1018 30.06 847 25.01 10.4 50.6 78 6.7 44.1
00:20 1018 30.06 847 25.01 10.3 50.5 78 6.7 44
00:25 1018 30.06 847 25.01 10.1 50.1 80 6.7 44.1
00:30 1018 30.06 847 25.01 9.8 49.6 81 6.7 44.1
00:35 1018 30.06 847 25.01 9.6 49.3 82 6.7 44
00:40 1018 30.06 847 25.01 9.7 49.4 81 6.6 44
00:45 1018 30.06 847 25.01 9.7 49.5 81 6.7 44
00:50 1018 30.06 847 25.01 9.8 49.6 81 6.7 44.1
00:55 1018 30.06 847 25.01 9.7 49.4 82 6.7 44
01:00 1018 30.06 847 25.01 9.6 49.3 82 6.7 44
01:05 1018 30.06 847 25.01 9.7 49.4 82 6.7 44
01:10 1018 30.06 847 25.01 9.7 49.5 81 6.6 43.9
01:15 1018 30.06 847 25.01 9.7 49.5 81 6.5 43.8
01:20 1018 30.06 847 25.01 9.7 49.4 81 6.5 43.8
01:25 1018 30.06 847 25.01 9.7 49.5 81 6.6 43.8
01:30 1018 30.06 847 25.01 9.7 49.4 82 6.7 44
01:35 1018 30.06 847 25.01 9.5 49.2 82 6.7 44
01:40 1018 30.06 847 25.01 9.5 49.1 82 6.6 43.9
01:45 1018 30.06 847 25.01 9.5 49.2 82 6.6 43.8
01:50 1018 30.06 847 25.01 9.5 49.1 81 6.5 43.7
01:55 1018 30.06 847 25.01 9.4 48.9 82 6.5 43.6
02:00 1018 30.06 847 25.01 9.4 48.8 82 6.4 43.6
02:05 1018 30.06 847 25.01 9.3 48.7 82 6.4 43.6
02:10 1018 30.06 847 25.01 9.2 48.6 82 6.4 43.5
02:15 1018 30.06 847 25.01 9.3 48.7 82 6.4 43.4
02:20 1017 30.03 847 25.01 9.3 48.8 81 6.3 43.4
02:25 1017 30.03 847 25.01 9.4 48.9 81 6.3 43.4
02:30 1017 30.03 847 25.01 9.4 49 81 6.4 43.5
02:35 1017 30.03 847 25.01 9.4 49 82 6.5 43.7
02:40 1017 30.03 847 25.01 9.4 48.8 83 6.6 44
02:45 1018 30.06 847 25.01 9.4 48.8 84 6.8 44.2
02:50 1017 30.03 847 25.01 9.4 49 83 6.8 44.2
02:55 1017 30.03 847 25.01 9.4 48.9 84 6.8 44.2
03:00 1017 30.03 847 25.01 9.4 48.9 85 6.9 44.5
03:05 1018 30.06 847 25.01 9.5 49 85 7.1 44.7
03:10 1018 30.06 847 25.01 9.5 49.1 85 7.1 44.8
03:15 1018 30.06 847 25.01 9.5 49.1 85 7.1 44.8
03:20 1018 30.06 847 25.01 9.5 49.1 84 6.9 44.4
03:25 1018 30.06 847 25.01 9.5 49.2 84 6.9 44.4
03:30 1018 30.06 847 25.01 9.5 49.1 84 6.9 44.5
03:35 1018 30.06 847 25.01 9.4 48.9 84 6.9 44.4
03:40 1018 30.06 847 25.01 9.4 48.9 84 6.8 44.3
03:45 1018 30.06 847 25.01 9.4 48.9 83 6.7 44.1
03:50 1018 30.06 847 25.01 9.4 48.9 83 6.7 44
03:55 1018 30.06 847 25.01 9.4 48.9 83 6.7 44.1
04:00 1018 30.06 847 25.01 9.3 48.8 83 6.6 43.9
04:05 1018 30.06 847 25.01 9.3 48.8 82 6.5 43.7
04:10 1018 30.06 847 25.01 9.3 48.8 82 6.5 43.6
04:15 1018 30.06 847 25.01 9.3 48.8 82 6.4 43.6
04:20 1018 30.06 847 25.01 9.3 48.7 81 6.3 43.3
04:25 1018 30.06 847 25.01 9.3 48.7 81 6.2 43.1
04:30 1018 30.06 847 25.01 9.3 48.7 80 6.1 43
04:35 1018 30.06 847 25.01 9.3 48.8 79 5.9 42.7
04:40 1018 30.06 847 25.01 9.4 48.8 79 6 42.8
04:45 1018 30.06 847 25.01 9.4 48.8 79 6 42.8
04:50 1018 30.06 847 25.01 9.3 48.7 80 6 42.8
04:55 1018 30.06 847 25.01 9.3 48.7 79 5.9 42.6
05:00 1018 30.06 847 25.01 9.3 48.7 79 5.9 42.7
05:05 1018 30.06 847 25.01 9.3 48.7 80 6 42.9
05:10 1018 30.06 847 25.01 9.2 48.6 80 5.9 42.7
05:15 1018 30.06 847 25.01 9.3 48.7 79 5.9 42.6
05:20 1018 30.06 847 25.01 9.3 48.8 79 5.9 42.6
05:25 1018 30.06 847 25.01 9.4 48.8 79 6 42.7
05:30 1018 30.06 847 25.01 9.3 48.8 80 6 42.8
05:35 1018 30.06 847 25.01 9.3 48.7 80 5.9 42.7
05:40 1018 30.06 847 25.01 9.3 48.7 79 5.9 42.6
05:45 1018 30.06 847 25.01 9.3 48.7 79 5.9 42.6
05:50 1018 30.06 848 25.04 9.3 48.8 79 5.9 42.6
05:55 1018 30.06 848 25.04 9.3 48.7 79 5.9 42.6
06:00 1019 30.09 848 25.04 9.3 48.7 79 5.9 42.6
06:05 1019 30.09 848 25.04 9.3 48.8 79 5.8 42.4
06:10 1019 30.09 848 25.04 9.3 48.8 79 5.8 42.4
06:15 1019 30.09 848 25.04 9.3 48.7 79 5.9 42.5
06:20 1019 30.09 848 25.04 9.2 48.6 80 5.9 42.7
06:25 1019 30.09 848 25.04 9.2 48.5 81 6 42.8
06:30 1019 30.09 848 25.04 9.1 48.4 81 6.1 43
06:35 1019 30.09 848 25.04 9 48.2 82 6.2 43.1
06:40 1019 30.09 848 25.04 8.9 48 83 6.3 43.3
06:45 1019 30.09 848 25.04 8.8 47.9 84 6.3 43.4
06:50 1019 30.09 848 25.04 8.7 47.7 85 6.3 43.4
06:55 1019 30.09 848 25.04 8.7 47.6 85 6.3 43.4
07:00 1019 30.09 848 25.04 8.7 47.6 86 6.4 43.6
07:05 1019 30.09 848 25.04 8.7 47.7 85 6.3 43.3
07:10 1019 30.09 848 25.04 8.7 47.7 85 6.4 43.5
07:15 1019 30.09 848 25.04 8.7 47.7 85 6.4 43.5
07:20 1019 30.09 848 25.04 8.7 47.6 86 6.4 43.6
07:25 1019 30.09 848 25.04 8.6 47.5 86 6.4 43.5
07:30 1019 30.09 848 25.04 8.6 47.5 85 6.3 43.4
07:35 1019 30.09 848 25.04 8.7 47.7 85 6.3 43.4
07:40 1019 30.09 848 25.04 8.7 47.6 85 6.4 43.5
07:45 1019 30.09 848 25.04 8.7 47.6 85 6.3 43.3
07:50 1019 30.09 848 25.04 8.7 47.6 86 6.4 43.6
07:55 1019 30.09 848 25.04 8.7 47.6 85 6.3 43.4
08:00 1019 30.09 848 25.04 8.6 47.6 86 6.4 43.5
08:05 1019 30.09 848 25.04 8.6 47.5 85 6.3 43.3
08:10 1018 30.06 848 25.04 8.6 47.5 85 6.2 43.1
08:15 1019 30.09 848 25.04 8.6 47.6 84 6.1 43
08:20 1019 30.09 848 25.04 8.6 47.5 85 6.2 43.2
08:25 1019 30.09 848 25.04 8.6 47.5 85 6.3 43.4
08:30 1019 30.09 848 25.04 8.6 47.5 86 6.4 43.5
08:35 1018 30.06 848 25.04 8.6 47.5 86 6.4 43.6
08:40 1018 30.06 848 25.04 8.6 47.6 85 6.3 43.4
08:45 1018 30.06 848 25.04 8.7 47.7 85 6.4 43.5
08:50 1018 30.06 848 25.04 8.8 47.9 84 6.3 43.4
08:55 1018 30.06 848 25.04 8.8 47.9 85 6.4 43.6
09:00 1018 30.06 848 25.04 8.9 47.9 84 6.4 43.5
09:05 1019 30.09 848 25.04 8.9 48.1 85 6.5 43.7
09:10 1019 30.09 848 25.04 9 48.1 84 6.5 43.7
09:15 1018 30.06 848 25.04 9 48.2 84 6.4 43.6
09:20 1019 30.09 848 25.04 9 48.1 84 6.5 43.7
09:25 1019 30.09 848 25.04 9 48.1 84 6.5 43.6
09:30 1019 30.09 848 25.04 9 48.3 85 6.7 44.1
09:35 1019 30.09 848 25.04 9.1 48.4 85 6.8 44.2
09:40 1019 30.09 848 25.04 9.1 48.4 85 6.8 44.2
09:45 1018 30.06 848 25.04 9.3 48.7 85 6.9 44.3
09:50 1019 30.09 848 25.04 9.5 49 80 6.3 43.3
09:55 1019 30.09 848 25.04 9.6 49.3 82 6.7 44
10:00 1018 30.06 848 25.04 9.6 49.3 80 6.4 43.6
10:05 1019 30.09 848 25.04 9.7 49.5 80 6.4 43.5
10:10 1018 30.06 848 25.04 9.9 49.7 79 6.3 43.4
10:15 1018 30.06 848 25.04 9.9 49.8 76 5.9 42.7
10:20 1018 30.06 848 25.04 10 50 76 5.9 42.6
10:25 1018 30.06 847 25.01 10 50 76 6.1 42.9
10:30 1018 30.06 847 25.01 10.1 50.1 75 5.8 42.4
10:35 1018 30.06 847 25.01 10.1 50.2 75 6 42.7
10:40 1018 30.06 848 25.04 10.1 50.2 76 6 42.9
10:45 1018 30.06 848 25.04 10.2 50.3 78 6.5 43.6
10:50 1018 30.06 847 25.01 10.5 51 74 6.1 43
10:55 1018 30.06 847 25.01 10.5 50.9 73 5.9 42.7
11:00 1018 30.06 848 25.04 10.5 50.8 73 5.9 42.7
11:05 1018 30.06 848 25.04 10.5 50.9 71 5.5 41.9
11:10 1018 30.06 848 25.04 10.5 51 73 5.9 42.6
11:15 1018 30.06 848 25.04 10.5 51 73 5.8 42.5
11:20 1018 30.06 848 25.04 10.6 51.1 72 5.8 42.5
11:25 1019 30.09 848 25.04 10.8 51.4 74 6.4 43.6
11:30 1019 30.09 848 25.04 10.9 51.7 72 6.2 43.1
11:35 1019 30.09 848 25.04 11.1 52 72 6.3 43.3
11:40 1019 30.09 848 25.04 11.1 52.1 70 6 42.7
11:45 1019 30.09 848 25.04 11.2 52.2 72 6.3 43.4
11:50 1019 30.09 848 25.04 11.3 52.3 70 6 42.8
11:55 1019 30.09 848 25.04 11.3 52.4 70 6.1 43
12:00 1019 30.09 848 25.04 11.5 52.6 69 6.1 42.9
12:05 1019 30.09 848 25.04 11.5 52.7 69 6.2 43.1
12:10 1019 30.09 848 25.04 11.6 52.9 67 5.8 42.4
12:15 1019 30.09 848 25.04 11.6 53 69 6.2 43.1
12:20 1019 30.09 848 25.04 11.7 53 68 6 42.8
12:25 1019 30.09 848 25.04 11.7 53.1 68 6.2 43.1
12:30 1019 30.09 848 25.04 11.9 53.3 68 6.1 43
12:35 1019 30.09 848 25.04 11.9 53.4 67 6 42.8
12:40 1019 30.09 848 25.04 12 53.6 68 6.2 43.2
12:45 1019 30.09 848 25.04 12.1 53.8 67 6.2 43.2
12:50 1019 30.09 848 25.04 12.1 53.8 67 6.2 43.1
12:55 1018 30.06 848 25.04 11.9 53.5 68 6.2 43.1
13:00 1018 30.06 847 25.01 12.1 53.7 68 6.3 43.3
13:05 1018 30.06 848 25.04 12.2 54 67 6.4 43.6
13:10 1018 30.06 847 25.01 12.3 54.1 67 6.4 43.6
13:15 1018 30.06 847 25.01 12.3 54.2 67 6.5 43.7
13:20 1018 30.06 847 25.01 12.6 54.7 65 6.2 43.2
13:25 1018 30.06 847 25.01 13.1 55.5 63 6.3 43.3
13:30 1018 30.06 848 25.04 12.7 54.8 66 6.5 43.8
13:35 1018 30.06 847 25.01 12.8 55 64 6.3 43.3
13:40 1018 30.06 847 25.01 12.7 54.8 65 6.3 43.4
13:45 1018 30.06 847 25.01 12.7 54.8 66 6.6 43.9
13:50 1018 30.06 847 25.01 12.6 54.6 67 6.6 43.9
13:55 1018 30.06 847 25.01 12.7 54.8 66 6.4 43.6
14:00 1018 30.06 847 25.01 12.7 54.8 66 6.6 43.9
14:05 1018 30.06 847 25.01 12.4 54.4 66 6.2 43.2
14:10 1018 30.06 847 25.01 12.3 54.2 68 6.5 43.8
14:15 1018 30.06 847 25.01 12.6 54.7 66 6.4 43.5
14:20 1018 30.06 847 25.01 12.8 55 65 6.3 43.4
14:25 1018 30.06 847 25.01 13.1 55.5 68 7.4 45.3
14:30 1018 30.06 847 25.01 12.9 55.2 72 7.9 46.3
14:35 1018 30.06 847 25.01 12.9 55.3 68 7.2 44.9
14:40 1018 30.06 847 25.01 13.1 55.6 66 6.9 44.4
14:45 1018 30.06 847 25.01 13.3 55.9 65 6.8 44.3
14:50 1018 30.06 847 25.01 13.2 55.7 66 7 44.7
14:55 1018 30.06 847 25.01 13.2 55.8 66 7 44.6
15:00 1018 30.06 847 25.01 13 55.4 67 7 44.6
15:05 1018 30.06 847 25.01 12.7 54.9 68 6.9 44.5
15:10 1018 30.06 847 25.01 12.6 54.7 68 6.9 44.4
15:15 1018 30.06 847 25.01 12.7 54.8 69 7.2 45
15:20 1018 30.06 847 25.01 12.5 54.6 68 6.9 44.4
15:25 1018 30.06 847 25.01 12.3 54.1 70 7 44.6
15:30 1018 30.06 847 25.01 12.2 54 71 7.1 44.7
15:35 1018 30.06 847 25.01 12.2 54 70 7 44.6
15:40 1018 30.06 847 25.01 12.1 53.7 71 6.9 44.4
15:45 1018 30.06 847 25.01 11.9 53.4 71 6.9 44.4
15:50 1018 30.06 848 25.04 11.8 53.3 72 7 44.6
15:55 1018 30.06 848 25.04 11.7 53 75 7.4 45.3
16:00 1018 30.06 848 25.04 11.4 52.5 77 7.6 45.7
16:05 1018 30.06 848 25.04 11.2 52.2 80 7.8 46.1
16:10 1018 30.06 848 25.04 11 51.7 80 7.7 45.9
16:15 1018 30.06 847 25.01 10.8 51.5 81 7.8 46
16:20 1018 30.06 847 25.01 10.8 51.4 80 7.4 45.3
16:25 1018 30.06 847 25.01 10.7 51.3 82 7.7 45.9
16:30 1018 30.06 848 25.04 10.6 51.1 81 7.5 45.4
16:35 1018 30.06 848 25.04 10.6 51.2 81 7.6 45.7
16:40 1018 30.06 848 25.04 10.5 50.8 83 7.8 46
16:45 1018 30.06 848 25.04 10.4 50.7 83 7.7 45.8
16:50 1018 30.06 848 25.04 10.5 50.9 82 7.7 45.8
16:55 1019 30.09 848 25.04 10.6 51.2 81 7.6 45.7
17:00 1019 30.09 848 25.04 10.8 51.4 80 7.5 45.6
17:05 1019 30.09 848 25.04 10.9 51.5 82 7.9 46.1
17:10 1019 30.09 848 25.04 10.9 51.5 82 7.9 46.3
17:15 1019 30.09 848 25.04 10.9 51.6 81 7.8 46.1
17:20 1019 30.09 848 25.04 10.8 51.4 82 7.9 46.3
17:25 1019 30.09 848 25.04 10.7 51.3 83 7.9 46.2
17:30 1018 30.06 848 25.04 10.7 51.3 82 7.8 46
17:35 1018 30.06 848 25.04 10.7 51.2 82 7.7 45.8
17:40 1018 30.06 848 25.04 10.6 51.1 82 7.7 45.9
17:45 1018 30.06 848 25.04 10.6 51 83 7.8 46.1
17:50 1018 30.06 848 25.04 10.4 50.8 84 7.9 46.2
17:55 1018 30.06 848 25.04 10.4 50.7 83 7.6 45.7
18:00 1018 30.06 847 25.01 10.5 50.9 83 7.7 45.9
18:05 1018 30.06 847 25.01 10.4 50.7 84 7.8 46
18:10 1018 30.06 847 25.01 10.3 50.6 85 7.9 46.1
18:15 1018 30.06 847 25.01 10.4 50.7 84 7.8 46.1
18:20 1018 30.06 847 25.01 10.6 51 83 7.7 45.9
18:25 1018 30.06 847 25.01 10.7 51.3 82 7.8 46.1
18:30 1017 30.03 847 25.01 10.8 51.4 81 7.7 45.8
18:35 1017 30.03 847 25.01 10.8 51.5 81 7.8 46
18:40 1017 30.03 847 25.01 10.8 51.5 82 7.9 46.2
18:45 1017 30.03 846 24.98 10.9 51.5 82 7.9 46.3
18:50 1017 30.03 846 24.98 11 51.7 80 7.7 45.8
18:55 1017 30.03 847 25.01 11 51.9 79 7.6 45.7
19:00 1017 30.03 847 25.01 11 51.9 80 7.8 46
19:05 1018 30.06 847 25.01 11 51.9 79 7.6 45.7
19:10 1017 30.03 847 25.01 11.1 51.9 80 7.7 45.8
19:15 1017 30.03 847 25.01 11.1 51.9 80 7.7 45.8
19:20 1017 30.03 847 25.01 11.1 51.9 79 7.6 45.7
19:25 1017 30.03 847 25.01 11.1 52 79 7.6 45.6
19:30 1017 30.03 847 25.01 11.1 52.1 79 7.6 45.8
19:35 1017 30.03 846 24.98 11.1 52 80 7.8 46
19:40 1017 30.03 846 24.98 11.1 52 80 7.8 46
19:45 1017 30.03 846 24.98 11 51.9 81 7.8 46.1
19:50 1017 30.03 846 24.98 11 51.8 80 7.8 46
19:55 1017 30.03 846 24.98 11 51.8 81 7.8 46.1
20:00 1017 30.03 846 24.98 10.9 51.6 81 7.8 46.1
20:05 1017 30.03 846 24.98 10.9 51.6 82 7.9 46.2
20:10 1017 30.03 846 24.98 10.8 51.4 82 7.9 46.3
20:15 1017 30.03 846 24.98 10.7 51.3 83 7.9 46.2
20:20 1017 30.03 846 24.98 10.7 51.3 82 7.8 46.1
20:25 1017 30.03 847 25.01 10.7 51.3 82 7.8 46
20:30 1017 30.03 847 25.01 10.7 51.2 83 7.9 46.2
20:35 1017 30.03 847 25.01 10.6 51.1 83 7.8 46
20:40 1017 30.03 847 25.01 10.7 51.3 82 7.8 46.1
20:45 1017 30.03 847 25.01 10.8 51.4 82 7.7 45.9
20:50 1018 30.06 847 25.01 10.8 51.5 82 7.9 46.2
20:55 1018 30.06 847 25.01 10.8 51.4 82 7.9 46.2
21:00 1018 30.06 847 25.01 10.8 51.4 82 7.8 46.1
21:05 1018 30.06 847 25.01 10.9 51.6 82 7.9 46.1
21:10 1017 30.03 847 25.01 10.9 51.7 81 7.8 46
21:15 1018 30.06 847 25.01 11 51.7 82 8 46.4
21:20 1018 30.06 847 25.01 10.9 51.6 81 7.8 46.1
21:25 1018 30.06 847 25.01 11 51.7 82 8 46.3
21:30 1018 30.06 847 25.01 10.9 51.5 83 8.1 46.5
21:35 1018 30.06 847 25.01 10.8 51.4 84 8.1 46.7
21:40 1018 30.06 847 25.01 10.8 51.4 84 8.2 46.7
21:45 1018 30.06 847 25.01 10.8 51.4 83 8.1 46.6
21:50 1018 30.06 847 25.01 10.8 51.4 84 8.2 46.8
21:55 1018 30.06 847 25.01 10.7 51.3 84 8.2 46.7
22:00 1018 30.06 847 25.01 10.7 51.3 84 8.2 46.8
22:05 1018 30.06 847 25.01 10.7 51.3 84 8.1 46.6
22:10 1018 30.06 847 25.01 10.8 51.4 84 8.2 46.8
22:15 1018 30.06 847 25.01 10.8 51.4 84 8.1 46.6
22:20 1018 30.06 847 25.01 10.8 51.5 84 8.2 46.7
22:25 1018 30.06 847 25.01 10.8 51.5 83 8.1 46.6
22:30 1018 30.06 847 25.01 10.9 51.5 84 8.3 46.9
22:35 1018 30.06 847 25.01 10.8 51.5 83 8.1 46.5
22:40 1018 30.06 847 25.01 10.8 51.5 83 8.1 46.6
22:45 1018 30.06 847 25.01 10.8 51.5 83 8.1 46.5
22:50 1018 30.06 847 25.01 10.9 51.5 83 8.2 46.7
22:55 1018 30.06 847 25.01 10.9 51.7 82 8.1 46.5
23:00 1018 30.06 847 25.01 10.9 51.7 82 8 46.4
23:05 1018 30.06 848 25.04 11 51.7 83 8.2 46.8
23:10 1019 30.09 848 25.04 11 51.7 83 8.2 46.7
23:15 1019 30.09 848 25.04 10.9 51.7 83 8.3 46.9
23:20 1019 30.09 848 25.04 10.9 51.6 84 8.3 46.9
23:25 1019 30.09 848 25.04 10.8 51.5 85 8.4 47.1
23:30 1019 30.09 848 25.04 10.8 51.4 85 8.4 47.1
23:35 1019 30.09 848 25.04 10.7 51.3 86 8.4 47.1
23:40 1018 30.06 848 25.04 10.7 51.2 86 8.4 47.1
23:45 1018 30.06 848 25.04 10.7 51.2 85 8.3 47
23:50 1018 30.06 847 25.01 10.8 51.4 86 8.5 47.3
23:55 1018 30.06 847 25.01 10.7 51.3 86 8.4 47.1
24:00 1018 30.06 847 25.01 10.8 51.4 85 8.4 47.1